Terminal Aerodrome Forecast
Issued by NWS

Home | Current Version | Previous Version | Text Only | Print | Product List | Glossary On
Versions: 1 2 3 4 5 6 7 8 9 10 11 12 13 14
423
FTUS43 KGRR 122340
TAFLAN
TAF
KLAN 122340Z 1300/1324 31012G23KT 6SM -SN OVC035
      TEMPO 1300/1301 3SM -SN BKN025
     FM130500 32010KT 6SM -SN OVC035
     FM131500 32012G22KT P6SM BKN040
     FM132000 31008KT P6SM SCT040=

USA.gov is the U.S. government's official web portal to all federal, state and local government web resources and services.